sensor_id;sensor_type;location;lat;lon;timestamp;temperature;humidity
12815;DHT22;6472;52.328;13.070;2022-10-17T00:00:50;10.50;99.90
12815;DHT22;6472;52.328;13.070;2022-10-17T00:03:18;10.40;99.90
12815;DHT22;6472;52.328;13.070;2022-10-17T00:05:47;10.50;99.90
12815;DHT22;6472;52.328;13.070;2022-10-17T00:08:17;10.50;99.90
12815;DHT22;6472;52.328;13.070;2022-10-17T00:10:54;10.50;99.90
12815;DHT22;6472;52.328;13.070;2022-10-17T00:13:23;10.50;99.90
12815;DHT22;6472;52.328;13.070;2022-10-17T00:15:51;10.50;99.90
12815;DHT22;6472;52.328;13.070;2022-10-17T00:18:19;10.50;99.90
12815;DHT22;6472;52.328;13.070;2022-10-17T00:20:47;10.50;99.90
12815;DHT22;6472;52.328;13.070;2022-10-17T00:23:17;10.50;99.90
12815;DHT22;6472;52.328;13.070;2022-10-17T00:25:45;10.40;99.90
12815;DHT22;6472;52.328;13.070;2022-10-17T00:28:14;10.40;99.90
12815;DHT22;6472;52.328;13.070;2022-10-17T00:30:42;10.40;99.90
12815;DHT22;6472;52.328;13.070;2022-10-17T00:33:10;10.40;99.90
12815;DHT22;6472;52.328;13.070;2022-10-17T00:35:38;10.40;99.90
12815;DHT22;6472;52.328;13.070;2022-10-17T00:38:06;10.40;99.90
12815;DHT22;6472;52.328;13.070;2022-10-17T00:40:36;10.40;99.90
12815;DHT22;6472;52.328;13.070;2022-10-17T00:43:04;10.40;99.90
12815;DHT22;6472;52.328;13.070;2022-10-17T00:45:33;10.40;99.90
12815;DHT22;6472;52.328;13.070;2022-10-17T00:48:04;10.40;99.90
12815;DHT22;6472;52.328;13.070;2022-10-17T00:50:35;10.40;99.90
12815;DHT22;6472;52.328;13.070;2022-10-17T00:53:07;10.40;99.90
12815;DHT22;6472;52.328;13.070;2022-10-17T00:55:42;10.50;99.90
12815;DHT22;6472;52.328;13.070;2022-10-17T00:58:11;10.40;99.90
12815;DHT22;6472;52.328;13.070;2022-10-17T01:00:40;10.40;99.90
12815;DHT22;6472;52.328;13.070;2022-10-17T01:03:08;10.40;99.90
12815;DHT22;6472;52.328;13.070;2022-10-17T01:05:36;10.40;99.90
12815;DHT22;6472;52.328;13.070;2022-10-17T01:08:05;10.40;99.90
12815;DHT22;6472;52.328;13.070;2022-10-17T01:10:56;10.40;99.90
12815;DHT22;6472;52.328;13.070;2022-10-17T01:13:31;10.40;99.90
12815;DHT22;6472;52.328;13.070;2022-10-17T01:16:07;10.40;99.90
12815;DHT22;6472;52.328;13.070;2022-10-17T01:18:48;10.30;99.90
12815;DHT22;6472;52.328;13.070;2022-10-17T01:21:29;10.20;99.90
12815;DHT22;6472;52.328;13.070;2022-10-17T01:24:16;10.20;99.90
12815;DHT22;6472;52.328;13.070;2022-10-17T01:27:14;10.10;99.90
12815;DHT22;6472;52.328;13.070;2022-10-17T01:30:08;10.00;99.90
12815;DHT22;6472;52.328;13.070;2022-10-17T01:32:45;10.00;99.90
12815;DHT22;6472;52.328;13.070;2022-10-17T01:35:20;9.90;99.90
12815;DHT22;6472;52.328;13.070;2022-10-17T01:37:52;9.90;99.90
12815;DHT22;6472;52.328;13.070;2022-10-17T01:40:26;9.80;99.90
12815;DHT22;6472;52.328;13.070;2022-10-17T01:42:56;9.80;99.90
12815;DHT22;6472;52.328;13.070;2022-10-17T01:45:28;9.70;99.90
12815;DHT22;6472;52.328;13.070;2022-10-17T01:48:04;9.70;99.90
12815;DHT22;6472;52.328;13.070;2022-10-17T01:50:39;9.70;99.90
12815;DHT22;6472;52.328;13.070;2022-10-17T01:53:12;9.60;99.90
12815;DHT22;6472;52.328;13.070;2022-10-17T01:55:43;9.60;99.90
12815;DHT22;6472;52.328;13.070;2022-10-17T01:58:15;9.60;99.90
12815;DHT22;6472;52.328;13.070;2022-10-17T02:00:46;9.60;99.90
12815;DHT22;6472;52.328;13.070;2022-10-17T02:03:18;9.50;99.90
12815;DHT22;6472;52.328;13.070;2022-10-17T02:05:47;9.50;99.90
12815;DHT22;6472;52.328;13.070;2022-10-17T02:08:24;9.50;99.90
12815;DHT22;6472;52.328;13.070;2022-10-17T02:10:56;9.50;99.90
12815;DHT22;6472;52.328;13.070;2022-10-17T02:13:35;9.40;99.90
12815;DHT22;6472;52.328;13.070;2022-10-17T02:16:11;9.40;99.90
12815;DHT22;6472;52.328;13.070;2022-10-17T02:18:52;9.40;99.90
12815;DHT22;6472;52.328;13.070;2022-10-17T02:21:31;9.40;99.90
12815;DHT22;6472;52.328;13.070;2022-10-17T02:24:08;9.40;99.90
12815;DHT22;6472;52.328;13.070;2022-10-17T02:26:42;9.40;99.90
12815;DHT22;6472;52.328;13.070;2022-10-17T02:29:14;9.50;99.90
12815;DHT22;6472;52.328;13.070;2022-10-17T02:31:46;9.50;99.90
12815;DHT22;6472;52.328;13.070;2022-10-17T02:34:20;9.60;99.90
12815;DHT22;6472;52.328;13.070;2022-10-17T02:36:51;9.70;99.90
12815;DHT22;6472;52.328;13.070;2022-10-17T02:39:22;9.70;99.90
12815;DHT22;6472;52.328;13.070;2022-10-17T02:41:51;9.80;99.90
12815;DHT22;6472;52.328;13.070;2022-10-17T02:44:22;9.80;99.90
12815;DHT22;6472;52.328;13.070;2022-10-17T02:46:53;9.80;99.90
12815;DHT22;6472;52.328;13.070;2022-10-17T02:49:28;9.90;99.90
12815;DHT22;6472;52.328;13.070;2022-10-17T02:52:02;9.90;99.90
12815;DHT22;6472;52.328;13.070;2022-10-17T02:54:36;10.00;99.90
12815;DHT22;6472;52.328;13.070;2022-10-17T02:57:09;10.10;99.90
12815;DHT22;6472;52.328;13.070;2022-10-17T02:59:39;10.10;99.90
12815;DHT22;6472;52.328;13.070;2022-10-17T03:02:10;10.20;99.90
12815;DHT22;6472;52.328;13.070;2022-10-17T03:04:43;10.20;99.90
12815;DHT22;6472;52.328;13.070;2022-10-17T03:07:11;10.30;99.90
12815;DHT22;6472;52.328;13.070;2022-10-17T03:09:39;10.30;99.90
12815;DHT22;6472;52.328;13.070;2022-10-17T03:12:07;10.40;99.90
12815;DHT22;6472;52.328;13.070;2022-10-17T03:14:35;10.40;99.90
12815;DHT22;6472;52.328;13.070;2022-10-17T03:17:04;10.40;99.90
12815;DHT22;6472;52.328;13.070;2022-10-17T03:19:32;10.50;99.90
12815;DHT22;6472;52.328;13.070;2022-10-17T03:22:01;10.50;99.90
12815;DHT22;6472;52.328;13.070;2022-10-17T03:24:29;10.50;99.90
12815;DHT22;6472;52.328;13.070;2022-10-17T03:26:57;10.50;99.90
12815;DHT22;6472;52.328;13.070;2022-10-17T03:29:26;10.50;99.90
12815;DHT22;6472;52.328;13.070;2022-10-17T03:31:53;10.60;99.90
12815;DHT22;6472;52.328;13.070;2022-10-17T03:34:22;10.50;99.90
12815;DHT22;6472;52.328;13.070;2022-10-17T03:36:50;10.60;99.90
12815;DHT22;6472;52.328;13.070;2022-10-17T03:39:19;10.50;99.90
12815;DHT22;6472;52.328;13.070;2022-10-17T03:41:48;10.50;99.90
12815;DHT22;6472;52.328;13.070;2022-10-17T03:44:16;10.60;99.90
12815;DHT22;6472;52.328;13.070;2022-10-17T03:46:44;10.60;99.90
12815;DHT22;6472;52.328;13.070;2022-10-17T03:49:12;10.60;99.90
12815;DHT22;6472;52.328;13.070;2022-10-17T03:51:40;10.50;99.90
12815;DHT22;6472;52.328;13.070;2022-10-17T03:54:08;10.60;99.90
12815;DHT22;6472;52.328;13.070;2022-10-17T03:56:38;10.50;99.90
12815;DHT22;6472;52.328;13.070;2022-10-17T03:59:08;10.50;99.90
12815;DHT22;6472;52.328;13.070;2022-10-17T04:01:37;10.50;99.90
12815;DHT22;6472;52.328;13.070;2022-10-17T04:04:05;10.40;99.90
12815;DHT22;6472;52.328;13.070;2022-10-17T04:06:33;10.40;99.90
12815;DHT22;6472;52.328;13.070;2022-10-17T04:09:02;10.40;99.90
12815;DHT22;6472;52.328;13.070;2022-10-17T04:11:30;10.30;99.90
12815;DHT22;6472;52.328;13.070;2022-10-17T04:14:00;10.30;99.90
12815;DHT22;6472;52.328;13.070;2022-10-17T04:16:28;10.20;99.90
12815;DHT22;6472;52.328;13.070;2022-10-17T04:18:57;10.10;99.90
12815;DHT22;6472;52.328;13.070;2022-10-17T04:21:27;10.10;99.90
12815;DHT22;6472;52.328;13.070;2022-10-17T04:23:56;10.00;99.90
12815;DHT22;6472;52.328;13.070;2022-10-17T04:26:25;10.00;99.90
12815;DHT22;6472;52.328;13.070;2022-10-17T04:28:53;10.00;99.90
12815;DHT22;6472;52.328;13.070;2022-10-17T04:31:23;10.00;99.90
12815;DHT22;6472;52.328;13.070;2022-10-17T04:33:51;9.90;99.90
12815;DHT22;6472;52.328;13.070;2022-10-17T04:36:21;9.90;99.90
12815;DHT22;6472;52.328;13.070;2022-10-17T04:38:59;9.90;99.90
12815;DHT22;6472;52.328;13.070;2022-10-17T04:41:28;9.80;99.90
12815;DHT22;6472;52.328;13.070;2022-10-17T04:43:56;9.80;99.90
12815;DHT22;6472;52.328;13.070;2022-10-17T04:46:26;9.80;99.90
12815;DHT22;6472;52.328;13.070;2022-10-17T04:48:54;9.80;99.90
12815;DHT22;6472;52.328;13.070;2022-10-17T04:51:22;9.70;99.90
12815;DHT22;6472;52.328;13.070;2022-10-17T04:53:52;9.60;99.90
12815;DHT22;6472;52.328;13.070;2022-10-17T04:56:22;9.60;99.90
12815;DHT22;6472;52.328;13.070;2022-10-17T04:58:51;9.60;99.90
12815;DHT22;6472;52.328;13.070;2022-10-17T05:01:20;9.60;99.90
12815;DHT22;6472;52.328;13.070;2022-10-17T05:03:51;9.60;99.90
12815;DHT22;6472;52.328;13.070;2022-10-17T05:06:22;9.50;99.90
12815;DHT22;6472;52.328;13.070;2022-10-17T05:08:50;9.50;99.90
12815;DHT22;6472;52.328;13.070;2022-10-17T05:11:25;9.50;99.90
12815;DHT22;6472;52.328;13.070;2022-10-17T05:13:55;9.50;99.90
12815;DHT22;6472;52.328;13.070;2022-10-17T05:16:23;9.40;99.90
12815;DHT22;6472;52.328;13.070;2022-10-17T05:18:54;9.50;99.90
12815;DHT22;6472;52.328;13.070;2022-10-17T05:21:24;9.40;99.90
12815;DHT22;6472;52.328;13.070;2022-10-17T05:23:53;9.40;99.90
12815;DHT22;6472;52.328;13.070;2022-10-17T05:26:22;9.40;99.90
12815;DHT22;6472;52.328;13.070;2022-10-17T05:28:51;9.40;99.90
12815;DHT22;6472;52.328;13.070;2022-10-17T05:31:20;9.40;99.90
12815;DHT22;6472;52.328;13.070;2022-10-17T05:33:48;9.40;99.90
12815;DHT22;6472;52.328;13.070;2022-10-17T05:36:18;9.40;99.90
12815;DHT22;6472;52.328;13.070;2022-10-17T05:38:48;9.40;99.90
12815;DHT22;6472;52.328;13.070;2022-10-17T05:41:17;9.40;99.90
12815;DHT22;6472;52.328;13.070;2022-10-17T05:43:46;9.40;99.90
12815;DHT22;6472;52.328;13.070;2022-10-17T05:46:16;9.40;99.90
12815;DHT22;6472;52.328;13.070;2022-10-17T05:48:44;9.40;99.90
12815;DHT22;6472;52.328;13.070;2022-10-17T05:51:12;9.40;99.90
12815;DHT22;6472;52.328;13.070;2022-10-17T05:53:41;9.40;99.90
12815;DHT22;6472;52.328;13.070;2022-10-17T05:56:11;9.40;99.90
12815;DHT22;6472;52.328;13.070;2022-10-17T05:58:40;9.50;99.90
12815;DHT22;6472;52.328;13.070;2022-10-17T06:01:20;9.50;99.90
12815;DHT22;6472;52.328;13.070;2022-10-17T06:03:50;9.50;99.90
12815;DHT22;6472;52.328;13.070;2022-10-17T06:06:18;9.50;99.90
12815;DHT22;6472;52.328;13.070;2022-10-17T06:08:47;9.60;99.90
12815;DHT22;6472;52.328;13.070;2022-10-17T06:11:16;9.60;99.90
12815;DHT22;6472;52.328;13.070;2022-10-17T06:13:44;9.70;99.90
12815;DHT22;6472;52.328;13.070;2022-10-17T06:16:12;9.70;99.90
12815;DHT22;6472;52.328;13.070;2022-10-17T06:18:40;9.80;99.90
12815;DHT22;6472;52.328;13.070;2022-10-17T06:21:10;9.90;99.90
12815;DHT22;6472;52.328;13.070;2022-10-17T06:23:38;9.90;99.90
12815;DHT22;6472;52.328;13.070;2022-10-17T06:26:08;10.00;99.90
12815;DHT22;6472;52.328;13.070;2022-10-17T06:28:36;10.10;99.90
12815;DHT22;6472;52.328;13.070;2022-10-17T06:31:05;10.20;99.90
12815;DHT22;6472;52.328;13.070;2022-10-17T06:33:34;10.30;99.90
12815;DHT22;6472;52.328;13.070;2022-10-17T06:36:04;10.30;99.90
12815;DHT22;6472;52.328;13.070;2022-10-17T06:38:33;10.40;99.90
12815;DHT22;6472;52.328;13.070;2022-10-17T06:41:02;10.50;99.90
12815;DHT22;6472;52.328;13.070;2022-10-17T06:43:35;10.60;99.90
12815;DHT22;6472;52.328;13.070;2022-10-17T06:46:04;10.70;99.90
12815;DHT22;6472;52.328;13.070;2022-10-17T06:48:33;10.70;99.90
12815;DHT22;6472;52.328;13.070;2022-10-17T06:51:01;10.90;99.90
12815;DHT22;6472;52.328;13.070;2022-10-17T06:53:31;11.00;99.90
12815;DHT22;6472;52.328;13.070;2022-10-17T06:56:01;11.10;99.90
12815;DHT22;6472;52.328;13.070;2022-10-17T06:58:31;11.30;99.90
12815;DHT22;6472;52.328;13.070;2022-10-17T07:01:02;11.50;99.90
12815;DHT22;6472;52.328;13.070;2022-10-17T07:03:31;11.60;99.90
12815;DHT22;6472;52.328;13.070;2022-10-17T07:05:59;11.80;99.90
12815;DHT22;6472;52.328;13.070;2022-10-17T07:08:27;12.00;99.90
12815;DHT22;6472;52.328;13.070;2022-10-17T07:10:55;12.20;99.90
12815;DHT22;6472;52.328;13.070;2022-10-17T07:13:24;12.30;99.90
12815;DHT22;6472;52.328;13.070;2022-10-17T07:15:52;12.50;99.90
12815;DHT22;6472;52.328;13.070;2022-10-17T07:18:25;12.60;99.90
12815;DHT22;6472;52.328;13.070;2022-10-17T07:20:53;12.70;99.90
12815;DHT22;6472;52.328;13.070;2022-10-17T07:23:22;12.80;99.90
12815;DHT22;6472;52.328;13.070;2022-10-17T07:25:50;12.90;99.90
12815;DHT22;6472;52.328;13.070;2022-10-17T07:28:22;13.00;99.90
12815;DHT22;6472;52.328;13.070;2022-10-17T07:30:50;13.00;99.90
12815;DHT22;6472;52.328;13.070;2022-10-17T07:33:20;13.10;99.90
12815;DHT22;6472;52.328;13.070;2022-10-17T07:35:49;13.20;99.90
12815;DHT22;6472;52.328;13.070;2022-10-17T07:38:19;13.30;99.90
12815;DHT22;6472;52.328;13.070;2022-10-17T07:40:53;13.50;99.90
12815;DHT22;6472;52.328;13.070;2022-10-17T07:43:21;13.50;99.90
12815;DHT22;6472;52.328;13.070;2022-10-17T07:45:50;13.70;99.90
12815;DHT22;6472;52.328;13.070;2022-10-17T07:48:19;13.80;99.90
12815;DHT22;6472;52.328;13.070;2022-10-17T07:50:49;13.90;99.90
12815;DHT22;6472;52.328;13.070;2022-10-17T07:53:17;14.00;99.90
12815;DHT22;6472;52.328;13.070;2022-10-17T07:55:46;14.20;99.90
12815;DHT22;6472;52.328;13.070;2022-10-17T07:58:15;14.40;99.90
12815;DHT22;6472;52.328;13.070;2022-10-17T08:00:44;14.60;99.90
12815;DHT22;6472;52.328;13.070;2022-10-17T08:03:14;14.70;99.90
12815;DHT22;6472;52.328;13.070;2022-10-17T08:05:42;14.90;99.90
12815;DHT22;6472;52.328;13.070;2022-10-17T08:08:11;15.20;99.90
12815;DHT22;6472;52.328;13.070;2022-10-17T08:10:42;15.50;99.90
12815;DHT22;6472;52.328;13.070;2022-10-17T08:13:22;15.80;99.90
12815;DHT22;6472;52.328;13.070;2022-10-17T08:15:49;16.00;99.90
12815;DHT22;6472;52.328;13.070;2022-10-17T08:18:17;16.20;99.90
12815;DHT22;6472;52.328;13.070;2022-10-17T08:20:45;16.40;99.90
12815;DHT22;6472;52.328;13.070;2022-10-17T08:23:15;16.80;99.90
12815;DHT22;6472;52.328;13.070;2022-10-17T08:25:43;17.10;99.90
12815;DHT22;6472;52.328;13.070;2022-10-17T08:28:11;17.40;99.90
12815;DHT22;6472;52.328;13.070;2022-10-17T08:30:39;17.70;99.90
12815;DHT22;6472;52.328;13.070;2022-10-17T08:33:07;17.90;99.90
12815;DHT22;6472;52.328;13.070;2022-10-17T08:35:35;18.10;99.90
12815;DHT22;6472;52.328;13.070;2022-10-17T08:38:03;18.40;99.90
12815;DHT22;6472;52.328;13.070;2022-10-17T08:40:39;18.70;99.90
12815;DHT22;6472;52.328;13.070;2022-10-17T08:43:18;19.00;99.90
12815;DHT22;6472;52.328;13.070;2022-10-17T08:45:53;19.20;99.90
12815;DHT22;6472;52.328;13.070;2022-10-17T08:48:27;19.40;99.90
12815;DHT22;6472;52.328;13.070;2022-10-17T08:50:58;19.50;99.90
12815;DHT22;6472;52.328;13.070;2022-10-17T08:53:30;19.50;99.90
12815;DHT22;6472;52.328;13.070;2022-10-17T08:56:03;19.70;99.90
12815;DHT22;6472;52.328;13.070;2022-10-17T08:58:35;19.90;99.90
12815;DHT22;6472;52.328;13.070;2022-10-17T09:01:07;20.00;99.90
12815;DHT22;6472;52.328;13.070;2022-10-17T09:03:51;20.10;99.90
12815;DHT22;6472;52.328;13.070;2022-10-17T09:06:25;20.10;99.90
12815;DHT22;6472;52.328;13.070;2022-10-17T09:09:06;20.20;99.90
12815;DHT22;6472;52.328;13.070;2022-10-17T09:11:50;20.30;99.90
12815;DHT22;6472;52.328;13.070;2022-10-17T09:14:30;20.30;99.90
12815;DHT22;6472;52.328;13.070;2022-10-17T09:17:12;20.30;99.90
12815;DHT22;6472;52.328;13.070;2022-10-17T09:19:45;20.30;99.90
12815;DHT22;6472;52.328;13.070;2022-10-17T09:22:19;20.30;99.90
12815;DHT22;6472;52.328;13.070;2022-10-17T09:24:51;20.40;99.90
12815;DHT22;6472;52.328;13.070;2022-10-17T09:27:26;20.40;99.90
12815;DHT22;6472;52.328;13.070;2022-10-17T09:30:31;20.50;99.90
12815;DHT22;6472;52.328;13.070;2022-10-17T09:33:18;20.60;99.90
12815;DHT22;6472;52.328;13.070;2022-10-17T09:36:10;20.50;99.90
12815;DHT22;6472;52.328;13.070;2022-10-17T09:38:41;20.40;99.90
12815;DHT22;6472;52.328;13.070;2022-10-17T09:41:15;20.50;99.90
12815;DHT22;6472;52.328;13.070;2022-10-17T09:44:23;20.60;99.90
12815;DHT22;6472;52.328;13.070;2022-10-17T09:47:16;20.60;99.90
12815;DHT22;6472;52.328;13.070;2022-10-17T09:49:47;20.70;99.90
12815;DHT22;6472;52.328;13.070;2022-10-17T09:52:17;20.80;99.90
12815;DHT22;6472;52.328;13.070;2022-10-17T09:54:48;21.00;99.90
12815;DHT22;6472;52.328;13.070;2022-10-17T09:57:18;21.00;99.90
12815;DHT22;6472;52.328;13.070;2022-10-17T09:59:56;21.20;99.90
12815;DHT22;6472;52.328;13.070;2022-10-17T10:02:26;21.20;99.90
12815;DHT22;6472;52.328;13.070;2022-10-17T10:04:57;21.20;99.90
12815;DHT22;6472;52.328;13.070;2022-10-17T10:07:32;21.40;99.90
12815;DHT22;6472;52.328;13.070;2022-10-17T10:10:02;21.50;99.90
12815;DHT22;6472;52.328;13.070;2022-10-17T10:12:32;21.60;99.90
12815;DHT22;6472;52.328;13.070;2022-10-17T10:15:29;21.60;99.90
12815;DHT22;6472;52.328;13.070;2022-10-17T10:17:58;21.50;99.90
12815;DHT22;6472;52.328;13.070;2022-10-17T10:20:30;21.30;99.90
12815;DHT22;6472;52.328;13.070;2022-10-17T10:23:14;21.20;99.90
12815;DHT22;6472;52.328;13.070;2022-10-17T10:25:52;21.10;99.90
12815;DHT22;6472;52.328;13.070;2022-10-17T10:28:25;21.10;99.90
12815;DHT22;6472;52.328;13.070;2022-10-17T10:30:57;21.20;99.90
12815;DHT22;6472;52.328;13.070;2022-10-17T10:33:27;21.30;99.90
12815;DHT22;6472;52.328;13.070;2022-10-17T10:35:58;21.40;99.90
12815;DHT22;6472;52.328;13.070;2022-10-17T10:38:28;21.50;99.90
12815;DHT22;6472;52.328;13.070;2022-10-17T10:41:01;21.50;99.90
12815;DHT22;6472;52.328;13.070;2022-10-17T10:43:33;21.50;99.90
12815;DHT22;6472;52.328;13.070;2022-10-17T10:46:05;21.50;99.90
12815;DHT22;6472;52.328;13.070;2022-10-17T10:48:49;21.50;99.90
12815;DHT22;6472;52.328;13.070;2022-10-17T10:51:21;21.50;99.90
12815;DHT22;6472;52.328;13.070;2022-10-17T10:53:53;21.50;99.90
12815;DHT22;6472;52.328;13.070;2022-10-17T10:56:26;21.50;99.90
12815;DHT22;6472;52.328;13.070;2022-10-17T10:58:59;21.70;99.90
12815;DHT22;6472;52.328;13.070;2022-10-17T11:01:34;21.80;99.90
12815;DHT22;6472;52.328;13.070;2022-10-17T11:04:16;21.80;99.90
12815;DHT22;6472;52.328;13.070;2022-10-17T11:06:47;21.90;99.90
12815;DHT22;6472;52.328;13.070;2022-10-17T11:09:25;21.90;99.90
12815;DHT22;6472;52.328;13.070;2022-10-17T11:12:03;21.90;99.90
12815;DHT22;6472;52.328;13.070;2022-10-17T11:14:38;21.80;99.90
12815;DHT22;6472;52.328;13.070;2022-10-17T11:17:16;22.00;99.90
12815;DHT22;6472;52.328;13.070;2022-10-17T11:19:51;22.10;99.90
12815;DHT22;6472;52.328;13.070;2022-10-17T11:22:26;22.10;99.90
12815;DHT22;6472;52.328;13.070;2022-10-17T11:24:58;22.10;99.90
12815;DHT22;6472;52.328;13.070;2022-10-17T11:27:28;22.10;99.90
12815;DHT22;6472;52.328;13.070;2022-10-17T11:29:57;22.20;99.90
12815;DHT22;6472;52.328;13.070;2022-10-17T11:32:31;22.20;99.90
12815;DHT22;6472;52.328;13.070;2022-10-17T11:35:04;22.30;99.90
12815;DHT22;6472;52.328;13.070;2022-10-17T11:37:36;22.40;99.90
12815;DHT22;6472;52.328;13.070;2022-10-17T11:40:14;22.50;99.90
12815;DHT22;6472;52.328;13.070;2022-10-17T11:42:51;22.50;99.90
12815;DHT22;6472;52.328;13.070;2022-10-17T11:45:22;22.50;99.90
12815;DHT22;6472;52.328;13.070;2022-10-17T11:47:58;22.50;99.90
12815;DHT22;6472;52.328;13.070;2022-10-17T11:50:30;22.50;99.90
12815;DHT22;6472;52.328;13.070;2022-10-17T11:53:21;22.60;99.90
12815;DHT22;6472;52.328;13.070;2022-10-17T11:55:51;22.60;99.90
12815;DHT22;6472;52.328;13.070;2022-10-17T11:58:34;22.70;99.90
12815;DHT22;6472;52.328;13.070;2022-10-17T12:01:14;22.80;99.90
12815;DHT22;6472;52.328;13.070;2022-10-17T12:03:56;22.80;99.90
12815;DHT22;6472;52.328;13.070;2022-10-17T12:06:40;22.80;99.90
12815;DHT22;6472;52.328;13.070;2022-10-17T12:09:14;22.90;99.90
12815;DHT22;6472;52.328;13.070;2022-10-17T12:11:49;23.00;99.90
12815;DHT22;6472;52.328;13.070;2022-10-17T12:14:38;23.00;99.90
12815;DHT22;6472;52.328;13.070;2022-10-17T12:17:24;23.00;99.90
12815;DHT22;6472;52.328;13.070;2022-10-17T12:20:19;23.10;99.90
12815;DHT22;6472;52.328;13.070;2022-10-17T12:22:52;23.00;99.90
12815;DHT22;6472;52.328;13.070;2022-10-17T12:25:23;23.00;99.90
12815;DHT22;6472;52.328;13.070;2022-10-17T12:28:07;22.90;99.90
12815;DHT22;6472;52.328;13.070;2022-10-17T12:30:51;23.00;99.90
12815;DHT22;6472;52.328;13.070;2022-10-17T12:33:21;23.10;99.90
12815;DHT22;6472;52.328;13.070;2022-10-17T12:39:42;23.10;99.90
12815;DHT22;6472;52.328;13.070;2022-10-17T12:42:31;23.00;99.90
12815;DHT22;6472;52.328;13.070;2022-10-17T12:44:59;23.10;99.90
12815;DHT22;6472;52.328;13.070;2022-10-17T12:47:36;23.10;99.90
12815;DHT22;6472;52.328;13.070;2022-10-17T12:53:14;23.10;99.90
12815;DHT22;6472;52.328;13.070;2022-10-17T12:55:46;23.00;99.90
12815;DHT22;6472;52.328;13.070;2022-10-17T12:58:17;23.00;99.90
12815;DHT22;6472;52.328;13.070;2022-10-17T13:00:49;23.10;99.90
12815;DHT22;6472;52.328;13.070;2022-10-17T13:03:42;23.10;99.90
12815;DHT22;6472;52.328;13.070;2022-10-17T13:06:15;23.10;99.90
12815;DHT22;6472;52.328;13.070;2022-10-17T13:08:47;23.10;99.90
12815;DHT22;6472;52.328;13.070;2022-10-17T13:11:24;23.10;99.90
12815;DHT22;6472;52.328;13.070;2022-10-17T13:13:56;23.20;99.90
12815;DHT22;6472;52.328;13.070;2022-10-17T13:16:28;23.20;99.90
12815;DHT22;6472;52.328;13.070;2022-10-17T13:18:57;23.20;99.90
12815;DHT22;6472;52.328;13.070;2022-10-17T13:21:26;23.20;99.90
12815;DHT22;6472;52.328;13.070;2022-10-17T13:23:54;23.20;99.90
12815;DHT22;6472;52.328;13.070;2022-10-17T13:26:26;23.20;99.90
12815;DHT22;6472;52.328;13.070;2022-10-17T13:29:02;23.20;99.90
12815;DHT22;6472;52.328;13.070;2022-10-17T13:31:32;23.20;99.90
12815;DHT22;6472;52.328;13.070;2022-10-17T13:34:02;23.20;99.90
12815;DHT22;6472;52.328;13.070;2022-10-17T13:36:31;23.20;99.90
12815;DHT22;6472;52.328;13.070;2022-10-17T13:39:06;23.20;99.90
12815;DHT22;6472;52.328;13.070;2022-10-17T13:41:42;23.10;99.90
12815;DHT22;6472;52.328;13.070;2022-10-17T13:44:12;23.20;99.90
12815;DHT22;6472;52.328;13.070;2022-10-17T13:46:40;23.10;99.90
12815;DHT22;6472;52.328;13.070;2022-10-17T13:49:18;23.10;99.90
12815;DHT22;6472;52.328;13.070;2022-10-17T13:51:53;23.10;99.90
12815;DHT22;6472;52.328;13.070;2022-10-17T13:54:34;23.10;99.90
12815;DHT22;6472;52.328;13.070;2022-10-17T13:57:05;23.10;99.90
12815;DHT22;6472;52.328;13.070;2022-10-17T13:59:37;23.10;99.90
12815;DHT22;6472;52.328;13.070;2022-10-17T14:02:10;23.10;99.90
12815;DHT22;6472;52.328;13.070;2022-10-17T14:04:40;23.00;99.90
12815;DHT22;6472;52.328;13.070;2022-10-17T14:07:33;23.00;99.90
12815;DHT22;6472;52.328;13.070;2022-10-17T14:10:24;23.00;99.90
12815;DHT22;6472;52.328;13.070;2022-10-17T14:12:54;23.10;99.90
12815;DHT22;6472;52.328;13.070;2022-10-17T14:15:25;23.00;99.90
12815;DHT22;6472;52.328;13.070;2022-10-17T14:17:56;23.00;99.90
12815;DHT22;6472;52.328;13.070;2022-10-17T14:20:32;23.00;99.90
12815;DHT22;6472;52.328;13.070;2022-10-17T14:23:33;22.90;99.90
12815;DHT22;6472;52.328;13.070;2022-10-17T14:26:07;22.90;99.90
12815;DHT22;6472;52.328;13.070;2022-10-17T14:28:38;22.90;99.90
12815;DHT22;6472;52.328;13.070;2022-10-17T14:31:12;22.80;99.90
12815;DHT22;6472;52.328;13.070;2022-10-17T14:33:45;22.70;99.90
12815;DHT22;6472;52.328;13.070;2022-10-17T14:36:17;22.70;99.90
12815;DHT22;6472;52.328;13.070;2022-10-17T14:41:26;22.50;99.90
12815;DHT22;6472;52.328;13.070;2022-10-17T14:44:19;22.40;99.90
12815;DHT22;6472;52.328;13.070;2022-10-17T14:46:51;22.30;99.90
12815;DHT22;6472;52.328;13.070;2022-10-17T14:49:34;22.20;99.90
12815;DHT22;6472;52.328;13.070;2022-10-17T14:52:24;22.10;99.90
12815;DHT22;6472;52.328;13.070;2022-10-17T14:54:54;22.00;99.90
12815;DHT22;6472;52.328;13.070;2022-10-17T14:57:26;21.90;99.90
12815;DHT22;6472;52.328;13.070;2022-10-17T14:59:56;21.90;99.90
12815;DHT22;6472;52.328;13.070;2022-10-17T15:02:25;21.80;99.90
12815;DHT22;6472;52.328;13.070;2022-10-17T15:04:54;21.70;99.90
12815;DHT22;6472;52.328;13.070;2022-10-17T15:07:22;21.60;99.90
12815;DHT22;6472;52.328;13.070;2022-10-17T15:09:51;21.50;99.90
12815;DHT22;6472;52.328;13.070;2022-10-17T15:12:21;21.40;99.90
12815;DHT22;6472;52.328;13.070;2022-10-17T15:14:51;21.30;99.90
12815;DHT22;6472;52.328;13.070;2022-10-17T15:17:23;21.20;99.90
12815;DHT22;6472;52.328;13.070;2022-10-17T15:19:51;21.10;99.90
12815;DHT22;6472;52.328;13.070;2022-10-17T15:22:20;21.00;99.90
12815;DHT22;6472;52.328;13.070;2022-10-17T15:24:48;20.90;99.90
12815;DHT22;6472;52.328;13.070;2022-10-17T15:27:17;20.80;99.90
12815;DHT22;6472;52.328;13.070;2022-10-17T15:29:46;20.70;99.90
12815;DHT22;6472;52.328;13.070;2022-10-17T15:32:14;20.60;99.90
12815;DHT22;6472;52.328;13.070;2022-10-17T15:34:44;20.40;99.90
12815;DHT22;6472;52.328;13.070;2022-10-17T15:37:16;20.30;99.90
12815;DHT22;6472;52.328;13.070;2022-10-17T15:39:47;20.20;99.90
12815;DHT22;6472;52.328;13.070;2022-10-17T15:42:19;20.00;99.90
12815;DHT22;6472;52.328;13.070;2022-10-17T15:44:48;19.80;99.90
12815;DHT22;6472;52.328;13.070;2022-10-17T15:47:23;19.70;99.90
12815;DHT22;6472;52.328;13.070;2022-10-17T15:49:53;19.50;99.90
12815;DHT22;6472;52.328;13.070;2022-10-17T15:52:22;19.40;99.90
12815;DHT22;6472;52.328;13.070;2022-10-17T15:54:51;19.20;99.90
12815;DHT22;6472;52.328;13.070;2022-10-17T15:57:20;19.10;99.90
12815;DHT22;6472;52.328;13.070;2022-10-17T15:59:50;19.00;99.90
12815;DHT22;6472;52.328;13.070;2022-10-17T16:02:20;18.80;99.90
12815;DHT22;6472;52.328;13.070;2022-10-17T16:04:49;18.70;99.90
12815;DHT22;6472;52.328;13.070;2022-10-17T16:07:19;18.50;99.90
12815;DHT22;6472;52.328;13.070;2022-10-17T16:09:48;18.30;99.90
12815;DHT22;6472;52.328;13.070;2022-10-17T16:12:17;18.30;99.90
12815;DHT22;6472;52.328;13.070;2022-10-17T16:14:53;18.10;99.90
12815;DHT22;6472;52.328;13.070;2022-10-17T16:17:22;18.00;99.90